createdAt,value
2018-12-25T00:02:45.202Z,-0.70
2018-12-25T00:07:54.557Z,-0.70
2018-12-25T00:13:03.495Z,-0.90
2018-12-25T00:18:09.786Z,-0.90
2018-12-25T00:23:16.887Z,-1.10
2018-12-25T00:28:27.617Z,-1.10
2018-12-25T00:33:36.501Z,-1.00
2018-12-25T00:38:47.491Z,-1.10
2018-12-25T00:43:57.051Z,-1.10
2018-12-25T00:49:14.781Z,-1.00
2018-12-25T00:54:14.916Z,-0.90
2018-12-25T00:59:26.775Z,-0.90
2018-12-25T01:04:36.528Z,-0.90
2018-12-25T01:09:50.511Z,-0.90
2018-12-25T01:15:03.003Z,-1.10
2018-12-25T01:20:17.201Z,-1.20
2018-12-25T01:25:27.887Z,-1.30
2018-12-25T01:30:33.714Z,-1.30
2018-12-25T01:35:39.079Z,-1.40
2018-12-25T01:40:46.610Z,-1.40
2018-12-25T01:45:51.705Z,-1.40
2018-12-25T01:51:03.340Z,-1.60
2018-12-25T01:56:14.968Z,-1.60
2018-12-25T02:01:22.928Z,-1.60
2018-12-25T02:06:30.645Z,-1.60
2018-12-25T02:11:39.133Z,-1.70
2018-12-25T02:16:45.430Z,-1.80
2018-12-25T02:21:53.924Z,-1.80
2018-12-25T02:27:05.298Z,-2.00
2018-12-25T02:32:13.125Z,-2.10
2018-12-25T02:37:20.643Z,-2.00
2018-12-25T02:42:26.001Z,-1.90
2018-12-25T02:47:33.505Z,-1.70
2018-12-25T02:52:38.559Z,-1.80
2018-12-25T02:57:44.850Z,-1.80
2018-12-25T03:02:53.161Z,-1.90
2018-12-25T03:07:58.738Z,-2.00
2018-12-25T03:13:07.992Z,-2.20
2018-12-25T03:18:17.241Z,-2.40
2018-12-25T03:23:23.117Z,-2.50
2018-12-25T03:28:29.597Z,-2.50
2018-12-25T03:33:39.564Z,-2.50
2018-12-25T03:38:51.477Z,-2.40
2018-12-25T03:43:57.545Z,-2.20
2018-12-25T03:49:08.032Z,-2.20
2018-12-25T03:54:14.946Z,-2.40
2018-12-25T03:59:23.460Z,-2.50
2018-12-25T04:04:29.433Z,-2.50
2018-12-25T04:09:36.722Z,-2.50
2018-12-25T04:14:42.231Z,-2.40
2018-12-25T04:19:48.070Z,-2.40
2018-12-25T04:24:54.352Z,-2.40
2018-12-25T04:30:00.464Z,-2.40
2018-12-25T04:35:06.132Z,-2.50
2018-12-25T04:40:15.903Z,-2.40
2018-12-25T04:45:24.432Z,-2.40
2018-12-25T04:50:31.177Z,-2.30
2018-12-25T04:55:38.329Z,-2.30
2018-12-25T05:00:43.589Z,-2.20
2018-12-25T05:05:49.666Z,-2.20
2018-12-25T05:10:59.167Z,-2.20
2018-12-25T05:16:04.382Z,-2.10
2018-12-25T05:21:11.080Z,-2.20
2018-12-25T05:26:17.807Z,-2.10
2018-12-25T05:31:27.152Z,-2.10
2018-12-25T05:36:33.308Z,-2.00
2018-12-25T05:41:42.558Z,-1.90
2018-12-25T05:46:48.553Z,-1.90
2018-12-25T05:51:53.996Z,-1.90
2018-12-25T05:56:59.870Z,-1.80
2018-12-25T06:02:05.758Z,-1.70
2018-12-25T06:07:11.923Z,-1.80
2018-12-25T06:12:21.374Z,-1.70
2018-12-25T06:17:27.266Z,-1.80
2018-12-25T06:22:35.482Z,-1.80
2018-12-25T06:27:43.813Z,-1.80
2018-12-25T06:32:50.297Z,-1.80
2018-12-25T06:37:56.474Z,-1.80
2018-12-25T06:43:01.627Z,-1.80
2018-12-25T06:48:07.709Z,-1.80
2018-12-25T06:53:13.064Z,-1.90
2018-12-25T06:58:17.481Z,-1.80
2018-12-25T07:03:22.122Z,-1.80
2018-12-25T07:08:27.366Z,-1.70
2018-12-25T07:13:31.757Z,-1.60
2018-12-25T07:18:36.630Z,-1.60
2018-12-25T07:23:41.598Z,-1.60
2018-12-25T07:28:47.754Z,-1.60
2018-12-25T07:33:53.260Z,-1.60
2018-12-25T07:38:58.569Z,-1.60
2018-12-25T07:44:03.626Z,-1.50
2018-12-25T07:49:10.591Z,-1.50
2018-12-25T07:54:18.545Z,-1.40
2018-12-25T07:59:25.381Z,-1.40
2018-12-25T08:04:30.101Z,-1.40
2018-12-25T08:09:35.188Z,-1.40
2018-12-25T08:14:39.928Z,-1.40
2018-12-25T08:19:45.401Z,-1.40
2018-12-25T08:24:51.961Z,-1.30
2018-12-25T08:29:56.503Z,-1.30
2018-12-25T08:35:01.282Z,-1.30
2018-12-25T08:40:05.837Z,-1.20
2018-12-25T08:45:10.204Z,-1.00
2018-12-25T08:50:15.573Z,-0.90
2018-12-25T08:55:20.074Z,-0.90
2018-12-25T09:00:25.376Z,-0.70
2018-12-25T09:06:30.117Z,-0.70
2018-12-25T09:11:36.065Z,-0.60
2018-12-25T09:16:41.083Z,-0.60
2018-12-25T09:21:46.407Z,-0.50
2018-12-25T09:26:51.719Z,-0.60
2018-12-25T09:31:57.404Z,-0.50
2018-12-25T09:37:01.830Z,-0.50
2018-12-25T09:42:08.769Z,-0.50
2018-12-25T09:47:14.424Z,-0.50
2018-12-25T09:52:22.114Z,-0.50
2018-12-25T09:57:26.962Z,-0.40
2018-12-25T10:02:34.717Z,-0.40
2018-12-25T10:07:39.485Z,-0.30
2018-12-25T10:12:47.167Z,-0.20
2018-12-25T10:17:53.723Z,-0.20
2018-12-25T10:22:58.797Z,-0.30
2018-12-25T10:28:05.380Z,-0.40
2018-12-25T10:33:15.151Z,-0.50
2018-12-25T10:38:23.341Z,-0.30
2018-12-25T10:43:28.095Z,-0.20
2018-12-25T10:48:32.761Z,-0.20
2018-12-25T10:53:38.310Z,-0.10
2018-12-25T10:58:44.109Z,-0.10
2018-12-25T11:03:48.542Z,0.00
2018-12-25T11:08:54.310Z,-0.10
2018-12-25T11:13:59.092Z,-0.10
2018-12-25T11:19:03.784Z,0.10
2018-12-25T11:24:08.774Z,0.10
2018-12-25T11:29:14.022Z,0.20
2018-12-25T11:34:22.931Z,0.30
2018-12-25T11:39:27.931Z,0.20
2018-12-25T11:44:32.619Z,0.20
2018-12-25T11:49:39.963Z,0.10
2018-12-25T11:54:47.907Z,0.20
2018-12-25T11:59:53.263Z,0.40
2018-12-25T12:04:57.913Z,0.40
2018-12-25T12:10:04.869Z,0.30
2018-12-25T12:15:09.914Z,0.40
2018-12-25T12:20:15.898Z,0.20
2018-12-25T12:25:20.881Z,0.20
2018-12-25T12:30:25.669Z,0.20
2018-12-25T12:35:32.534Z,0.30
2018-12-25T12:40:40.693Z,0.40
2018-12-25T12:45:45.606Z,0.60
2018-12-25T12:50:51.838Z,0.60
2018-12-25T12:55:56.549Z,0.60
2018-12-25T13:01:05.504Z,0.50
2018-12-25T13:06:11.375Z,0.50
2018-12-25T13:11:19.982Z,0.00
2018-12-25T13:16:24.506Z,0.00
2018-12-25T13:21:29.368Z,0.00
2018-12-25T13:26:34.639Z,0.10
2018-12-25T13:31:39.254Z,0.00
2018-12-25T13:36:44.196Z,0.10
2018-12-25T13:41:49.052Z,0.10
2018-12-25T13:46:54.103Z,0.00
2018-12-25T13:51:58.548Z,0.10
2018-12-25T13:57:03.699Z,0.00
2018-12-25T14:02:11.122Z,-0.10
2018-12-25T14:07:17.313Z,-0.10
2018-12-25T14:12:23.047Z,-0.10
2018-12-25T14:17:29.502Z,-0.10
2018-12-25T14:22:34.474Z,0.00
2018-12-25T14:27:41.493Z,0.00
2018-12-25T14:32:46.320Z,0.00
2018-12-25T14:37:53.337Z,-0.10
2018-12-25T14:43:00.994Z,-0.10
2018-12-25T14:48:05.656Z,-0.10
2018-12-25T14:53:10.521Z,-0.20
2018-12-25T14:58:15.170Z,-0.30
2018-12-25T15:03:20.335Z,-0.40
2018-12-25T15:08:25.969Z,-0.30
2018-12-25T15:13:30.820Z,-0.40
2018-12-25T15:18:35.566Z,-0.30
2018-12-25T15:23:40.708Z,-0.30
2018-12-25T15:28:45.831Z,-0.30
2018-12-25T15:33:50.357Z,-0.30
2018-12-25T15:38:55.348Z,-0.40
2018-12-25T15:44:00.639Z,-0.40
2018-12-25T15:49:09.065Z,-0.40
2018-12-25T15:54:13.634Z,-0.40
2018-12-25T15:59:18.532Z,-0.50
2018-12-25T16:04:23.714Z,-0.40
2018-12-25T16:09:31.490Z,-0.40
2018-12-25T16:14:36.550Z,-0.40
2018-12-25T16:19:41.853Z,-0.40
2018-12-25T16:24:46.395Z,-0.40
2018-12-25T16:29:50.687Z,-0.40
2018-12-25T16:34:56.715Z,-0.40
2018-12-25T16:40:01.795Z,-0.40
2018-12-25T16:45:06.599Z,-0.50
2018-12-25T16:50:12.982Z,-0.40
2018-12-25T16:55:18.098Z,-0.50
2018-12-25T17:00:22.422Z,-0.50
2018-12-25T17:05:29.808Z,-0.40
2018-12-25T17:10:34.172Z,-0.50
2018-12-25T17:15:40.661Z,-0.50
2018-12-25T17:20:45.877Z,-0.50
2018-12-25T17:25:53.115Z,-0.50
2018-12-25T17:30:58.179Z,-0.40
2018-12-25T17:36:04.726Z,-0.40
2018-12-25T17:41:10.915Z,-0.40
2018-12-25T17:46:15.770Z,-0.40
2018-12-25T17:51:20.706Z,-0.40
2018-12-25T17:56:25.745Z,-0.40
2018-12-25T18:01:30.416Z,-0.50
2018-12-25T18:06:38.814Z,-0.50
2018-12-25T18:11:43.283Z,-0.50
2018-12-25T18:16:47.968Z,-0.50
2018-12-25T18:21:54.003Z,-0.50
2018-12-25T18:27:01.265Z,-0.50
2018-12-25T18:32:08.577Z,-0.50
2018-12-25T18:37:16.108Z,-0.50
2018-12-25T18:42:23.354Z,-0.50
2018-12-25T18:47:28.937Z,-0.50
2018-12-25T18:52:35.541Z,-0.50
2018-12-25T18:57:40.062Z,-0.60
2018-12-25T19:02:44.923Z,-0.50
2018-12-25T19:07:50.276Z,-0.50
2018-12-25T19:12:55.271Z,-0.40
2018-12-25T19:18:00.457Z,-0.40
2018-12-25T19:23:05.648Z,-0.40
2018-12-25T19:28:11.117Z,-0.40
2018-12-25T19:33:16.387Z,-0.40
2018-12-25T19:38:21.861Z,-0.40
2018-12-25T19:43:30.881Z,-0.30
2018-12-25T19:48:35.491Z,-0.30
2018-12-25T19:53:40.530Z,-0.30
2018-12-25T19:58:47.843Z,-0.30
2018-12-25T20:04:01.112Z,-0.30
2018-12-25T20:10:01.202Z,-0.30
2018-12-25T20:15:33.600Z,-0.20
2018-12-25T20:21:00.350Z,-0.30
2018-12-25T20:27:07.723Z,-0.30
2018-12-25T20:32:50.450Z,-0.30
2018-12-25T20:38:31.103Z,-0.20
2018-12-25T20:44:12.398Z,-0.30
2018-12-25T20:50:00.142Z,-0.30
2018-12-25T20:56:03.841Z,-0.30
2018-12-25T21:01:50.750Z,-0.30
2018-12-25T21:07:33.492Z,-0.20
2018-12-25T21:13:37.283Z,-0.20
2018-12-25T21:19:44.575Z,-0.30
2018-12-25T21:25:25.912Z,-0.20
2018-12-25T21:30:35.284Z,-0.20
2018-12-25T21:35:39.716Z,-0.30
2018-12-25T21:40:47.979Z,-0.30
2018-12-25T21:45:53.697Z,-0.30
2018-12-25T21:51:00.093Z,-0.30
2018-12-25T21:56:05.975Z,-0.30
2018-12-25T22:01:11.980Z,-0.30
2018-12-25T22:06:16.949Z,-0.30
2018-12-25T22:11:21.598Z,-0.30
2018-12-25T22:16:27.058Z,-0.30
2018-12-25T22:21:32.600Z,-0.30
2018-12-25T22:26:37.541Z,-0.40
2018-12-25T22:31:42.858Z,-0.30
2018-12-25T22:36:48.127Z,-0.40
2018-12-25T22:41:58.612Z,-0.40
2018-12-25T22:47:04.565Z,-0.30
2018-12-25T22:52:21.039Z,-0.30
2018-12-25T22:57:25.380Z,-0.30
2018-12-25T23:02:30.153Z,-0.10
2018-12-25T23:07:37.404Z,-0.10
2018-12-25T23:12:43.583Z,-0.20
2018-12-25T23:17:48.301Z,-0.20
2018-12-25T23:22:52.632Z,-0.30
2018-12-25T23:27:58.045Z,-0.30
2018-12-25T23:33:03.111Z,-0.30
2018-12-25T23:38:08.889Z,-0.30
2018-12-25T23:43:16.123Z,-0.30
2018-12-25T23:48:20.683Z,-0.30
2018-12-25T23:53:25.240Z,-0.30
2018-12-25T23:58:30.434Z,-0.30
